Time;durP1;ratioP1;P1;durP2;ratioP2;P2;SDS_P1;SDS_P2;PMS_P1;PMS_P2;Temp;Humidity;BMP_temperature;BMP_pressure;BME280_temperature;BME280_humidity;BME280_pressure;Samples;Min_cycle;Max_cycle;Signal;HPM_P1;HPM_P2
2023/01/15 00:01:26;;;;;;;11.57;1.40;;;6.50;99.90;;;;;;5045389;28;20051;-71
2023/01/15 00:03:54;;;;;;;9.32;1.65;;;6.10;99.90;;;;;;5038910;28;20078;-71
2023/01/15 00:06:21;;;;;;;11.20;1.60;;;6.10;99.90;;;;;;5068676;28;20036;-72
2023/01/15 00:08:47;;;;;;;18.55;1.73;;;6.10;99.90;;;;;;5053620;28;20520;-72
2023/01/15 00:11:13;;;;;;;10.52;1.92;;;6.10;99.90;;;;;;5069034;28;20166;-72
2023/01/15 00:13:39;;;;;;;14.02;2.40;;;6.10;99.90;;;;;;5053363;28;20052;-72
2023/01/15 00:16:26;;;;;;;13.20;1.48;;;6.10;99.90;;;;;;5070833;28;20094;-72
2023/01/15 00:18:57;;;;;;;8.93;1.90;;;6.10;99.90;;;;;;5047322;28;20126;-73
2023/01/15 00:21:25;;;;;;;13.50;1.58;;;6.50;99.90;;;;;;5058424;28;20054;-72
2023/01/15 00:29:22;;;;;;;16.02;2.15;;;6.30;99.90;;;;;;5054909;28;20479;-73
2023/01/15 00:32:00;;;;;;;12.80;2.35;;;6.10;99.90;;;;;;5054678;28;20503;-73
2023/01/15 00:34:27;;;;;;;14.85;2.05;;;6.20;99.90;;;;;;5054945;28;20059;-73
2023/01/15 00:36:53;;;;;;;19.17;2.33;;;6.10;99.90;;;;;;5068172;28;20166;-73
2023/01/15 00:39:19;;;;;;;15.38;1.95;;;6.70;99.90;;;;;;5027345;28;20067;-73
2023/01/15 00:41:44;;;;;;;15.60;2.58;;;6.10;99.90;;;;;;5065067;28;20254;-73
2023/01/15 00:44:10;;;;;;;11.52;2.00;;;6.10;99.90;;;;;;5056057;28;20082;-72
2023/01/15 00:46:36;;;;;;;13.00;1.42;;;6.50;99.90;;;;;;5051764;28;20071;-72
2023/01/15 00:49:03;;;;;;;9.48;1.50;;;6.10;99.90;;;;;;5053394;28;20114;-73
2023/01/15 00:51:29;;;;;;;18.60;1.85;;;6.10;99.90;;;;;;5055089;28;20040;-73
2023/01/15 00:53:55;;;;;;;17.67;2.28;;;6.10;99.90;;;;;;5054446;28;20051;-73
2023/01/15 00:56:21;;;;;;;16.48;2.03;;;6.10;99.90;;;;;;5073605;28;20036;-73
2023/01/15 00:58:46;;;;;;;10.68;1.42;;;6.10;99.90;;;;;;5051664;28;20237;-73
2023/01/15 01:01:13;;;;;;;15.63;2.15;;;6.10;99.90;;;;;;5069689;28;20052;-72
2023/01/15 01:03:39;;;;;;;14.27;2.08;;;6.10;99.90;;;;;;5071280;28;20094;-72
2023/01/15 01:06:05;;;;;;;11.75;1.52;;;6.10;99.90;;;;;;5031816;28;20044;-73
2023/01/15 01:08:30;;;;;;;17.92;2.42;;;6.10;99.90;;;;;;5052687;28;20048;-72
2023/01/15 01:11:07;;;;;;;18.17;1.80;;;6.10;99.90;;;;;;5074593;28;20055;-73
2023/01/15 01:13:34;;;;;;;12.32;1.92;;;6.10;99.90;;;;;;5053145;28;20459;-73
2023/01/15 01:16:00;;;;;;;10.85;1.60;;;6.10;99.90;;;;;;5073315;28;20090;-73
2023/01/15 01:18:26;;;;;;;13.18;2.20;;;6.10;99.90;;;;;;5073688;28;20044;-73
2023/01/15 01:20:52;;;;;;;13.40;1.70;;;6.10;99.90;;;;;;5075403;28;20051;-73
2023/01/15 01:23:18;;;;;;;11.98;1.60;;;6.10;99.90;;;;;;5038414;28;20135;-73
2023/01/15 01:25:44;;;;;;;15.55;1.90;;;6.10;99.90;;;;;;5036648;28;20143;-73
2023/01/15 01:28:09;;;;;;;13.82;1.80;;;6.10;99.90;;;;;;5054308;28;20044;-73
2023/01/15 01:30:37;;;;;;;17.10;2.17;;;6.00;99.90;;;;;;5051370;28;20047;-73
2023/01/15 01:33:03;;;;;;;16.27;1.80;;;6.10;99.90;;;;;;5073216;28;20123;-72
2023/01/15 01:35:29;;;;;;;13.50;1.95;;;6.00;99.90;;;;;;5035544;28;20176;-72
2023/01/15 01:37:55;;;;;;;15.63;2.20;;;6.00;99.90;;;;;;5072323;28;20108;-72
2023/01/15 01:40:20;;;;;;;14.65;1.67;;;6.00;99.90;;;;;;5034771;28;20044;-73
2023/01/15 01:42:46;;;;;;;17.67;2.38;;;6.00;99.90;;;;;;5071423;28;20048;-72
2023/01/15 01:45:26;;;;;;;14.20;1.98;;;6.00;99.90;;;;;;5047958;28;20044;-73
2023/01/15 01:47:56;;;;;;;17.77;2.03;;;6.00;99.90;;;;;;5052553;28;20379;-72
2023/01/15 01:50:22;;;;;;;15.73;2.25;;;6.00;99.90;;;;;;5074527;28;20047;-72
2023/01/15 01:52:55;;;;;;;18.30;2.72;;;6.10;99.90;;;;;;5049818;28;20036;-72
2023/01/15 01:55:23;;;;;;;9.77;1.55;;;6.00;99.90;;;;;;5063832;28;20043;-72
2023/01/15 01:57:53;;;;;;;16.25;2.22;;;6.00;99.90;;;;;;5050383;28;20051;-72
2023/01/15 02:00:21;;;;;;;13.43;1.52;;;6.00;99.90;;;;;;5051592;28;20346;-72
2023/01/15 02:02:48;;;;;;;15.85;1.60;;;6.00;99.90;;;;;;5054490;28;20650;-73
2023/01/15 02:05:21;;;;;;;15.23;2.20;;;6.00;99.90;;;;;;5054239;28;20055;-72
2023/01/15 02:07:46;;;;;;;21.08;2.58;;;6.00;99.90;;;;;;5055304;28;20525;-72
2023/01/15 02:10:14;;;;;;;16.60;2.20;;;6.00;99.90;;;;;;5054125;28;20060;-72
2023/01/15 02:12:43;;;;;;;16.30;2.25;;;6.00;99.90;;;;;;5037990;28;20131;-73
2023/01/15 02:15:27;;;;;;;22.20;2.83;;;6.00;99.90;;;;;;5053789;28;20544;-72
2023/01/15 02:18:08;;;;;;;20.42;2.15;;;6.00;99.90;;;;;;5038635;28;20047;-74
2023/01/15 02:20:45;;;;;;;15.73;2.05;;;6.00;99.90;;;;;;5056382;28;20062;-73
2023/01/15 02:23:30;;;;;;;12.10;1.98;;;6.00;99.90;;;;;;5049622;28;20534;-73
2023/01/15 02:26:14;;;;;;;13.68;2.22;;;5.90;99.90;;;;;;5071572;28;20043;-74
2023/01/15 02:28:43;;;;;;;11.65;1.88;;;6.00;99.90;;;;;;5037182;28;20051;-73
2023/01/15 02:31:30;;;;;;;17.15;2.30;;;5.90;99.90;;;;;;5053589;28;20044;-73
2023/01/15 02:34:23;;;;;;;13.27;2.08;;;6.00;99.90;;;;;;5069563;28;20128;-73
2023/01/15 02:36:56;;;;;;;13.00;2.50;;;6.00;99.90;;;;;;5065274;28;20044;-73
2023/01/15 02:39:23;;;;;;;17.63;2.78;;;6.00;99.90;;;;;;5045433;28;20800;-73
2023/01/15 02:41:56;;;;;;;12.35;2.15;;;5.90;99.90;;;;;;5035763;28;20052;-73
2023/01/15 02:44:24;;;;;;;22.38;3.28;;;5.90;99.90;;;;;;5052965;28;20052;-73
2023/01/15 02:46:50;;;;;;;16.92;1.98;;;6.00;99.90;;;;;;5069078;28;20447;-73
2023/01/15 02:49:20;;;;;;;17.85;2.20;;;5.90;99.90;;;;;;5038898;28;20048;-73
2023/01/15 02:52:04;;;;;;;13.02;1.70;;;6.00;99.90;;;;;;5032290;28;20101;-73
2023/01/15 02:54:38;;;;;;;18.65;3.00;;;6.00;99.90;;;;;;5048016;28;20127;-74
2023/01/15 02:57:04;;;;;;;15.25;1.88;;;6.00;99.90;;;;;;5063898;28;20209;-74
2023/01/15 02:59:37;;;;;;;15.15;2.20;;;6.00;99.90;;;;;;5050636;28;20043;-75
2023/01/15 03:02:09;;;;;;;16.35;2.33;;;6.00;99.90;;;;;;5029033;28;20750;-74
2023/01/15 03:04:39;;;;;;;19.25;2.38;;;5.90;99.90;;;;;;5047176;28;20062;-74
2023/01/15 03:07:20;;;;;;;20.05;2.50;;;5.90;99.90;;;;;;5048339;28;20475;-74
2023/01/15 03:09:47;;;;;;;12.48;2.28;;;6.00;99.90;;;;;;5050253;28;20051;-73
2023/01/15 03:13:00;;;;;;;15.77;3.13;;;5.90;99.90;;;;;;5037197;28;20823;-74
2023/01/15 03:16:33;;;;;;;17.88;2.00;;;6.00;99.90;;;;;;5050226;28;20043;-74
2023/01/15 03:18:10;;;;;;;12.05;2.30;;;6.10;99.90;;;;;;5049788;28;20054;-74
2023/01/15 03:20:40;;;;;;;16.70;2.00;;;5.90;99.90;;;;;;5051508;28;20082;-74
2023/01/15 03:23:11;;;;;;;9.80;2.03;;;5.90;99.90;;;;;;5066849;28;20047;-74
2023/01/15 03:25:41;;;;;;;13.27;2.13;;;6.00;99.90;;;;;;5065967;28;20044;-75
2023/01/15 03:28:10;;;;;;;16.33;2.65;;;5.90;99.90;;;;;;5051104;28;20072;-74
2023/01/15 03:30:36;;;;;;;17.80;2.38;;;5.90;99.90;;;;;;5069620;28;20122;-75
2023/01/15 03:33:02;;;;;;;13.43;2.20;;;5.90;99.90;;;;;;5051550;28;20045;-74
2023/01/15 03:35:46;;;;;;;13.45;1.95;;;5.90;99.90;;;;;;5067670;28;20132;-74
2023/01/15 03:38:13;;;;;;;17.42;1.85;;;5.90;99.90;;;;;;5052528;28;20052;-74
2023/01/15 03:40:49;;;;;;;19.70;2.35;;;5.80;99.90;;;;;;5032006;28;20136;-74
2023/01/15 03:46:17;;;;;;;18.77;1.95;;;5.90;99.90;;;;;;5047878;28;20437;-74
2023/01/15 03:48:54;;;;;;;16.33;2.90;;;5.90;99.90;;;;;;5067553;28;20036;-74
2023/01/15 03:51:34;;;;;;;21.38;2.60;;;5.90;99.90;;;;;;5072040;28;20044;-74
2023/01/15 03:54:05;;;;;;;17.85;2.20;;;6.40;99.90;;;;;;5072263;28;20079;-73
2023/01/15 03:56:54;;;;;;;19.92;2.95;;;5.80;99.90;;;;;;5039217;28;20048;-74
2023/01/15 03:59:33;;;;;;;18.80;3.92;;;5.80;99.90;;;;;;5037266;28;20139;-75
2023/01/15 04:02:03;;;;;;;13.85;1.85;;;5.80;99.90;;;;;;5054252;28;20044;-74
2023/01/15 04:04:29;;;;;;;15.30;2.35;;;5.80;99.90;;;;;;5055107;28;20763;-74
2023/01/15 04:06:55;;;;;;;11.27;1.90;;;6.00;99.90;;;;;;5038365;28;20067;-74
2023/01/15 04:09:22;;;;;;;13.25;2.00;;;5.80;99.90;;;;;;5073129;28;21051;-74
2023/01/15 04:11:48;;;;;;;16.67;2.70;;;5.70;99.90;;;;;;5069414;28;20056;-74
2023/01/15 04:14:14;;;;;;;20.58;2.38;;;5.80;99.90;;;;;;5071349;28;20074;-74
2023/01/15 04:16:40;;;;;;;14.25;1.83;;;5.80;99.90;;;;;;5075327;28;20075;-74
2023/01/15 04:19:06;;;;;;;16.50;2.15;;;5.80;99.90;;;;;;5051768;28;20780;-74
2023/01/15 04:21:31;;;;;;;14.85;1.75;;;5.80;99.90;;;;;;5043924;28;20051;-74
2023/01/15 04:23:57;;;;;;;9.50;1.63;;;5.80;99.90;;;;;;5035535;28;20385;-74
2023/01/15 04:26:23;;;;;;;14.48;2.00;;;5.80;99.90;;;;;;5079038;28;20044;-74
2023/01/15 04:28:49;;;;;;;14.40;2.10;;;5.90;99.90;;;;;;5041495;28;20113;-73
2023/01/15 04:31:15;;;;;;;18.30;2.63;;;6.40;99.90;;;;;;5067614;28;20036;-74
2023/01/15 04:33:41;;;;;;;11.15;1.50;;;5.80;99.90;;;;;;5040636;28;20127;-74
2023/01/15 04:36:10;;;;;;;19.83;2.42;;;5.70;99.90;;;;;;5054494;28;20093;-75
2023/01/15 04:38:37;;;;;;;14.45;2.00;;;5.70;99.90;;;;;;5055273;28;20044;-74
2023/01/15 04:44:06;;;;;;;10.43;2.05;;;5.70;99.90;;;;;;5072879;28;20056;-74
2023/01/15 04:46:41;;;;;;;14.40;2.60;;;5.70;99.90;;;;;;5056441;28;20036;-74
2023/01/15 04:49:13;;;;;;;16.80;2.25;;;5.70;99.90;;;;;;5071418;28;20393;-74
2023/01/15 04:51:39;;;;;;;;;;;5.70;99.90;;;;;;5071699;28;20721;-74
2023/01/15 04:54:06;;;;;;;13.18;2.33;;;5.70;99.90;;;;;;5051174;28;19925;-74
2023/01/15 04:56:37;;;;;;;13.20;2.00;;;5.70;99.90;;;;;;5054866;28;20036;-74
2023/01/15 04:59:03;;;;;;;14.57;1.83;;;5.60;99.90;;;;;;5062604;28;20069;-74
2023/01/15 05:01:29;;;;;;;13.82;1.90;;;5.70;99.90;;;;;;5046511;28;20040;-73
2023/01/15 05:03:57;;;;;;;17.40;2.55;;;5.70;99.90;;;;;;5052079;28;20151;-73
2023/01/15 05:06:23;;;;;;;15.93;1.80;;;5.70;99.90;;;;;;5071670;28;20489;-74
2023/01/15 05:08:49;;;;;;;13.63;2.15;;;5.60;99.90;;;;;;5064715;28;20097;-74
2023/01/15 05:11:15;;;;;;;13.15;1.90;;;5.60;99.90;;;;;;5069064;28;20056;-74
2023/01/15 05:13:40;;;;;;;14.80;1.73;;;5.60;99.90;;;;;;5071703;28;20056;-74
2023/01/15 05:16:30;;;;;;;17.27;2.67;;;5.90;99.90;;;;;;5074434;28;20104;-74
2023/01/15 05:19:03;;;;;;;20.65;3.20;;;5.60;99.90;;;;;;5021958;28;20068;-74
2023/01/15 05:21:32;;;;;;;14.48;1.92;;;5.50;99.90;;;;;;5053085;28;20626;-74
2023/01/15 05:23:59;;;;;;;16.45;1.77;;;5.50;99.90;;;;;;5051283;28;20093;-75
2023/01/15 05:26:26;;;;;;;21.80;2.10;;;5.50;99.90;;;;;;5068063;28;20052;-74
2023/01/15 05:28:54;;;;;;;14.98;1.90;;;5.50;99.90;;;;;;5070784;28;20386;-74
2023/01/15 05:31:21;;;;;;;12.80;2.30;;;5.50;99.90;;;;;;5045072;28;20036;-74
2023/01/15 05:33:48;;;;;;;16.65;2.80;;;5.50;99.90;;;;;;5068714;28;20050;-73
2023/01/15 05:36:18;;;;;;;15.48;2.00;;;5.50;99.90;;;;;;5047310;28;20350;-73
2023/01/15 05:38:44;;;;;;;18.00;1.92;;;5.60;99.90;;;;;;5066762;28;20995;-74
2023/01/15 05:44:06;;;;;;;21.92;2.08;;;5.40;99.90;;;;;;5065295;28;20058;-74
2023/01/15 05:46:33;;;;;;;15.43;1.88;;;5.40;99.90;;;;;;5051224;28;20048;-74
2023/01/15 05:49:06;;;;;;;15.80;2.05;;;5.40;99.90;;;;;;5046041;28;20052;-73
2023/01/15 05:51:34;;;;;;;15.20;1.92;;;5.40;99.90;;;;;;5053520;28;20055;-73
2023/01/15 05:53:59;;;;;;;16.90;2.20;;;5.40;99.90;;;;;;5055269;28;20055;-73
2023/01/15 05:56:25;;;;;;;16.98;2.05;;;5.40;99.90;;;;;;5055542;28;20036;-74
2023/01/15 05:58:52;;;;;;;12.77;1.58;;;5.40;99.90;;;;;;5053651;28;20047;-74
2023/01/15 06:01:18;;;;;;;17.23;1.88;;;5.30;99.90;;;;;;5067236;28;20579;-74
2023/01/15 06:03:45;;;;;;;12.70;1.80;;;5.40;99.90;;;;;;5033833;28;20929;-74
2023/01/15 06:06:17;;;;;;;11.57;1.55;;;5.40;99.90;;;;;;5050288;28;20048;-74
2023/01/15 06:08:43;;;;;;;15.45;2.30;;;5.30;99.90;;;;;;5034670;28;20043;-73
2023/01/15 06:11:10;;;;;;;12.32;2.03;;;5.30;99.90;;;;;;5040127;28;20048;-74
2023/01/15 06:13:38;;;;;;;20.30;2.40;;;5.30;99.90;;;;;;5055432;28;20056;-73
2023/01/15 06:16:04;;;;;;;18.33;1.85;;;5.30;99.90;;;;;;5060284;28;20048;-74
2023/01/15 06:18:30;;;;;;;12.65;1.77;;;5.20;99.90;;;;;;5050445;28;20454;-74
2023/01/15 06:20:56;;;;;;;11.70;2.55;;;5.20;99.90;;;;;;5045584;28;20044;-74
2023/01/15 06:23:21;;;;;;;12.07;2.20;;;5.40;99.90;;;;;;5054127;28;20591;-74
2023/01/15 06:25:47;;;;;;;11.68;1.98;;;5.30;99.90;;;;;;5032041;28;20051;-73
2023/01/15 06:28:13;;;;;;;18.48;1.85;;;5.30;99.90;;;;;;5058821;28;20782;-74
2023/01/15 06:30:39;;;;;;;15.68;1.73;;;5.20;99.90;;;;;;5066682;28;20135;-74
2023/01/15 06:33:07;;;;;;;10.82;1.58;;;5.20;99.90;;;;;;5053706;28;20127;-73
2023/01/15 06:35:34;;;;;;;16.00;1.70;;;5.20;99.90;;;;;;5032648;28;20040;-74
2023/01/15 06:37:59;;;;;;;15.82;2.00;;;5.30;99.90;;;;;;5052042;28;20085;-74
2023/01/15 06:40:27;;;;;;;15.63;1.85;;;5.30;99.90;;;;;;5071675;28;20646;-74
2023/01/15 06:48:25;;;;;;;17.02;2.05;;;5.30;99.90;;;;;;5052098;28;20127;-73
2023/01/15 06:50:51;;;;;;;14.10;2.25;;;5.90;99.90;;;;;;5053977;28;20093;-74
2023/01/15 06:53:17;;;;;;;16.30;1.70;;;5.20;99.90;;;;;;5053147;28;20052;-74
2023/01/15 06:55:42;;;;;;;14.70;1.63;;;5.20;99.90;;;;;;5071001;28;20066;-74
2023/01/15 06:58:08;;;;;;;18.15;2.13;;;5.50;99.90;;;;;;5068113;28;20048;-73
2023/01/15 07:00:34;;;;;;;13.70;1.88;;;5.20;99.90;;;;;;5056123;28;20127;-74
2023/01/15 07:03:00;;;;;;;12.77;1.90;;;5.20;99.90;;;;;;5049287;28;20198;-73
2023/01/15 07:05:27;;;;;;;15.35;2.08;;;5.20;99.90;;;;;;5054242;28;20044;-73
2023/01/15 07:07:53;;;;;;;15.57;1.90;;;5.20;99.90;;;;;;5051448;28;20047;-74
2023/01/15 07:10:19;;;;;;;11.27;1.60;;;5.20;99.90;;;;;;5054700;28;20064;-74
2023/01/15 07:12:45;;;;;;;13.40;1.70;;;5.20;99.90;;;;;;5047063;28;20683;-73
2023/01/15 07:15:11;;;;;;;10.30;1.60;;;5.20;99.90;;;;;;5072088;28;20500;-74
2023/01/15 07:17:37;;;;;;;12.23;1.75;;;5.20;99.90;;;;;;5038423;28;20032;-73
2023/01/15 07:20:04;;;;;;;13.02;1.70;;;5.20;99.90;;;;;;5072234;28;20072;-73
2023/01/15 07:22:30;;;;;;;10.25;1.83;;;5.20;99.90;;;;;;5046037;28;20036;-73
2023/01/15 07:24:56;;;;;;;15.32;1.92;;;5.20;99.90;;;;;;5043749;28;20056;-74
2023/01/15 07:27:22;;;;;;;12.73;1.67;;;5.20;99.90;;;;;;5035755;28;20050;-73
2023/01/15 07:29:48;;;;;;;12.07;1.63;;;5.20;99.90;;;;;;5034409;28;20381;-73
2023/01/15 07:32:14;;;;;;;16.27;2.05;;;5.20;99.90;;;;;;5053865;28;20048;-74
2023/01/15 07:34:40;;;;;;;10.77;1.30;;;5.20;99.90;;;;;;5038846;28;20036;-74
2023/01/15 07:37:06;;;;;;;10.02;1.77;;;5.20;99.90;;;;;;5039021;28;20055;-74
2023/01/15 07:39:32;;;;;;;18.30;2.92;;;5.70;99.90;;;;;;5056778;28;20044;-73
2023/01/15 07:50:17;;;;;;;20.42;1.75;;;5.20;99.90;;;;;;5076415;28;20052;-73
2023/01/15 07:52:43;;;;;;;13.82;2.75;;;5.20;99.90;;;;;;5056739;28;20036;-73
2023/01/15 07:55:11;;;;;;;8.48;1.60;;;4.80;99.90;;;;;;5056331;28;20126;-73
2023/01/15 07:57:38;;;;;;;11.13;1.67;;;5.10;99.90;;;;;;5074603;28;20047;-75
2023/01/15 08:00:18;;;;;;;22.38;2.10;;;5.10;99.90;;;;;;5051842;28;20720;-75
2023/01/15 08:02:44;;;;;;;11.15;1.70;;;5.10;99.90;;;;;;5053949;28;20048;-74
2023/01/15 08:05:11;;;;;;;15.25;3.45;;;5.10;99.90;;;;;;5054197;28;20047;-73
2023/01/15 08:07:39;;;;;;;10.48;1.23;;;5.10;99.90;;;;;;5035104;28;20045;-74
2023/01/15 08:10:05;;;;;;;16.90;2.03;;;5.10;99.90;;;;;;5033118;28;20471;-74
2023/01/15 08:15:16;;;;;;;11.75;1.48;;;5.10;99.90;;;;;;5055066;28;20060;-75
2023/01/15 08:17:44;;;;;;;15.73;2.05;;;5.20;99.90;;;;;;5058579;28;20050;-76
2023/01/15 08:20:18;;;;;;;15.82;2.40;;;5.20;99.90;;;;;;5051529;28;20052;-74
2023/01/15 08:22:45;;;;;;;18.83;2.85;;;5.20;99.90;;;;;;5050120;28;20043;-76
2023/01/15 08:25:23;;;;;;;15.35;2.80;;;5.20;99.90;;;;;;5067137;28;20040;-75
2023/01/15 08:27:50;;;;;;;13.63;2.10;;;5.20;99.90;;;;;;5046662;28;20044;-75
2023/01/15 08:30:18;;;;;;;16.25;3.10;;;5.20;99.90;;;;;;5063484;28;20077;-75
2023/01/15 08:32:45;;;;;;;14.32;2.60;;;5.20;99.90;;;;;;5046014;28;20047;-74
2023/01/15 08:35:11;;;;;;;13.60;2.75;;;5.20;99.90;;;;;;5035784;28;20048;-75
2023/01/15 08:37:38;;;;;;;8.45;1.70;;;5.20;99.90;;;;;;5048877;28;20126;-75
2023/01/15 08:40:04;;;;;;;15.68;2.78;;;5.20;99.90;;;;;;5045783;28;20625;-74
2023/01/15 08:42:30;;;;;;;16.00;1.98;;;5.20;99.90;;;;;;5043856;28;20174;-73
2023/01/15 08:44:56;;;;;;;15.15;1.70;;;5.20;99.90;;;;;;5047278;28;20673;-73
2023/01/15 08:47:21;;;;;;;11.70;1.92;;;5.20;99.90;;;;;;5054211;28;20055;-74
2023/01/15 08:49:47;;;;;;;14.68;2.75;;;5.20;99.90;;;;;;5042279;28;20056;-75
2023/01/15 08:52:14;;;;;;;13.75;2.22;;;5.20;99.90;;;;;;5052201;28;20050;-75
2023/01/15 08:54:40;;;;;;;14.05;1.55;;;5.10;99.90;;;;;;5069651;28;20040;-75
2023/01/15 08:57:08;;;;;;;16.02;2.05;;;5.10;99.90;;;;;;5068462;28;20052;-74
2023/01/15 08:59:34;;;;;;;14.88;1.80;;;5.00;99.90;;;;;;5039074;28;20378;-74
2023/01/15 09:02:00;;;;;;;15.32;2.10;;;4.80;99.90;;;;;;5052924;28;20074;-74
2023/01/15 09:04:25;;;;;;;16.90;1.90;;;4.80;99.90;;;;;;5074054;28;20068;-75
2023/01/15 09:06:52;;;;;;;12.48;1.92;;;4.70;99.90;;;;;;5053416;28;20067;-75
2023/01/15 09:09:17;;;;;;;10.90;1.45;;;4.70;99.90;;;;;;5029220;28;20048;-75
2023/01/15 09:11:44;;;;;;;16.88;2.83;;;4.70;99.90;;;;;;5056664;28;20056;-75
2023/01/15 09:14:12;;;;;;;15.00;2.13;;;4.70;99.90;;;;;;5051753;28;20114;-75
2023/01/15 09:16:38;;;;;;;10.20;1.48;;;4.70;99.90;;;;;;5060764;28;20048;-74
2023/01/15 09:19:05;;;;;;;10.93;2.60;;;4.70;99.90;;;;;;5072188;28;20063;-73
2023/01/15 09:21:32;;;;;;;12.52;1.77;;;4.80;99.90;;;;;;5047693;28;20386;-73
2023/01/15 09:23:58;;;;;;;15.75;2.15;;;4.80;99.90;;;;;;5047415;28;20055;-74
2023/01/15 09:26:34;;;;;;;12.10;2.58;;;5.40;99.90;;;;;;5057958;28;20040;-74
2023/01/15 09:29:01;;;;;;;16.83;2.47;;;4.80;99.90;;;;;;5060953;28;20124;-74
2023/01/15 09:31:27;;;;;;;11.77;1.55;;;5.10;99.90;;;;;;5054175;28;20044;-75
2023/01/15 09:33:52;;;;;;;15.18;2.67;;;4.90;99.90;;;;;;5042455;28;20279;-74
2023/01/15 09:36:36;;;;;;;13.73;1.92;;;5.00;99.90;;;;;;5049597;28;20055;-74
2023/01/15 09:39:03;;;;;;;13.15;2.38;;;5.00;99.90;;;;;;5053775;28;20362;-74
2023/01/15 09:42:07;;;;;;;12.18;2.50;;;5.10;99.90;;;;;;5037538;28;20113;-74
2023/01/15 09:44:48;;;;;;;17.88;1.80;;;5.10;99.90;;;;;;5052872;28;20047;-75
2023/01/15 09:47:30;;;;;;;12.75;2.35;;;5.20;99.90;;;;;;5058409;28;20109;-74
2023/01/15 09:50:14;;;;;;;;;;;5.30;99.90;;;;;;5071638;28;20044;-73
2023/01/15 09:52:55;;;;;;;16.85;1.80;;;5.30;99.90;;;;;;5038013;28;19923;-74
2023/01/15 09:55:27;;;;;;;11.20;2.33;;;5.40;99.90;;;;;;5037592;28;20036;-74
2023/01/15 09:57:59;;;;;;;13.23;1.70;;;5.50;99.90;;;;;;5053757;28;20040;-74
2023/01/15 10:00:28;;;;;;;12.40;1.98;;;5.50;99.90;;;;;;5056800;28;20413;-75
2023/01/15 10:03:09;;;;;;;14.30;1.80;;;5.60;99.90;;;;;;5058706;28;20177;-75
2023/01/15 10:05:46;;;;;;;14.05;2.22;;;5.70;99.90;;;;;;5045002;28;20074;-75
2023/01/15 10:08:26;;;;;;;14.40;1.75;;;6.00;99.90;;;;;;5066584;28;20093;-74
2023/01/15 10:11:18;;;;;;;9.70;1.55;;;5.80;99.90;;;;;;5052134;28;20051;-73
2023/01/15 10:13:46;;;;;;;17.08;2.25;;;5.80;99.90;;;;;;5063018;28;20128;-74
2023/01/15 10:16:21;;;;;;;16.95;2.20;;;5.80;99.90;;;;;;5025821;28;20797;-74
2023/01/15 10:18:47;;;;;;;16.27;2.05;;;5.80;99.90;;;;;;5028666;28;20032;-73
2023/01/15 10:21:46;;;;;;;8.57;1.67;;;5.90;99.90;;;;;;5056466;28;20443;-74
2023/01/15 10:24:15;;;;;;;11.38;1.63;;;5.90;99.90;;;;;;5026677;28;20097;-74
2023/01/15 10:27:04;;;;;;;17.42;2.53;;;6.00;99.90;;;;;;5034590;28;20071;-74
2023/01/15 10:29:46;;;;;;;13.48;2.08;;;6.10;99.90;;;;;;5059019;28;20032;-74
2023/01/15 10:32:44;;;;;;;11.85;2.70;;;6.10;99.90;;;;;;5057037;28;20055;-76
2023/01/15 10:35:26;;;;;;;19.73;2.10;;;6.20;99.90;;;;;;5054935;28;20045;-76
2023/01/15 10:38:12;;;;;;;;;;;6.30;99.90;;;;;;5074923;28;20112;-76
2023/01/15 10:41:02;;;;;;;12.25;1.48;;;6.40;99.90;;;;;;5072114;28;19927;-76
2023/01/15 10:43:36;;;;;;;8.85;1.77;;;6.40;99.90;;;;;;5056292;28;20079;-75
2023/01/15 10:46:32;;;;;;;14.85;1.90;;;6.40;99.90;;;;;;5055275;28;20036;-74
2023/01/15 10:49:14;;;;;;;17.02;1.90;;;6.40;99.90;;;;;;5051178;28;20040;-73
2023/01/15 10:51:45;;;;;;;13.35;2.10;;;6.40;99.90;;;;;;5052959;28;20036;-73
2023/01/15 10:54:49;;;;;;;16.52;2.25;;;6.40;99.90;;;;;;5061133;28;20070;-75
2023/01/15 10:57:38;;;;;;;14.65;1.90;;;6.40;99.90;;;;;;5057047;28;20040;-75
2023/01/15 11:00:04;;;;;;;10.60;2.60;;;6.50;99.90;;;;;;5050333;28;20166;-74
2023/01/15 11:02:42;;;;;;;13.30;1.88;;;6.50;99.90;;;;;;5052882;28;20135;-75
2023/01/15 11:05:16;;;;;;;15.93;1.95;;;6.50;99.90;;;;;;5061084;28;20431;-74
2023/01/15 11:07:48;;;;;;;14.27;2.00;;;6.50;99.90;;;;;;5060903;28;20051;-73
2023/01/15 11:10:16;;;;;;;17.00;1.75;;;6.50;99.90;;;;;;5037513;28;20444;-73
2023/01/15 11:21:19;;;;;;;12.98;2.17;;;7.10;99.90;;;;;;5070416;28;20055;-74
2023/01/15 11:23:46;;;;;;;14.15;2.00;;;6.90;99.90;;;;;;5044331;28;20041;-74
2023/01/15 11:26:26;;;;;;;19.20;2.88;;;6.90;99.90;;;;;;5055717;28;20052;-74
2023/01/15 11:28:53;;;;;;;13.73;2.50;;;6.90;99.90;;;;;;5033971;28;20131;-74
2023/01/15 11:31:19;;;;;;;16.40;2.22;;;7.40;99.90;;;;;;5060852;28;20439;-74
2023/01/15 11:34:06;;;;;;;15.20;2.70;;;7.50;99.90;;;;;;5054225;28;20071;-74
2023/01/15 11:36:33;;;;;;;16.52;2.50;;;6.80;99.90;;;;;;5077882;28;20490;-76
2023/01/15 11:38:58;;;;;;;16.13;2.28;;;7.40;99.90;;;;;;5039671;28;20048;-75
2023/01/15 11:52:53;;;;;;;11.13;1.90;;;6.70;99.90;;;;;;5053246;28;20406;-73
2023/01/15 11:55:25;;;;;;;16.10;2.55;;;6.70;99.90;;;;;;5057169;28;20503;-73
2023/01/15 11:57:52;;;;;;;20.58;3.00;;;6.60;99.90;;;;;;5061160;28;20429;-74
2023/01/15 12:00:24;;;;;;;15.88;2.53;;;6.60;99.90;;;;;;5063530;28;20087;-74
2023/01/15 12:02:55;;;;;;;16.10;1.80;;;6.60;99.90;;;;;;5058505;28;20047;-75
2023/01/15 12:05:24;;;;;;;13.88;2.03;;;6.50;99.90;;;;;;5050166;28;20048;-75
2023/01/15 12:07:53;;;;;;;21.42;2.92;;;6.50;99.90;;;;;;5031161;28;20051;-75
2023/01/15 12:13:12;;;;;;;13.88;1.95;;;6.50;99.90;;;;;;5063090;28;20059;-73
2023/01/15 12:15:53;;;;;;;14.40;1.85;;;6.60;99.90;;;;;;5065332;28;20036;-75
2023/01/15 12:18:40;;;;;;;15.13;2.53;;;6.60;99.90;;;;;;5038553;28;20040;-75
2023/01/15 12:21:35;;;;;;;17.92;2.67;;;6.60;99.90;;;;;;5040719;28;20131;-74
2023/01/15 12:24:01;;;;;;;16.13;2.78;;;6.50;99.90;;;;;;5056298;28;20044;-74
2023/01/15 12:26:31;;;;;;;11.88;1.90;;;6.50;99.90;;;;;;5051925;28;20086;-76
2023/01/15 12:29:21;;;;;;;10.18;1.70;;;6.40;99.90;;;;;;5054647;28;20044;-75
2023/01/15 12:31:54;;;;;;;8.18;1.20;;;6.10;99.90;;;;;;5071432;28;20262;-77
2023/01/15 12:34:51;;;;;;;7.82;1.38;;;5.80;99.90;;;;;;5054333;28;20060;-77
2023/01/15 12:37:43;;;;;;;10.30;1.30;;;5.60;99.90;;;;;;5052929;28;20134;-76
2023/01/15 12:40:20;;;;;;;9.68;1.55;;;5.50;99.90;;;;;;5046535;28;20048;-76
2023/01/15 12:45:40;;;;;;;8.38;1.60;;;5.40;99.90;;;;;;5053520;28;20112;-75
2023/01/15 12:48:30;;;;;;;9.77;1.70;;;5.30;99.90;;;;;;5070929;28;20032;-75
2023/01/15 12:51:03;;;;;;;7.57;1.42;;;5.30;99.90;;;;;;5052943;28;20162;-76
2023/01/15 12:53:38;;;;;;;9.52;1.98;;;5.30;99.90;;;;;;5031481;28;20390;-75
2023/01/15 12:56:22;;;;;;;9.63;1.50;;;5.30;99.90;;;;;;5033834;28;20465;-76
2023/01/15 12:59:04;;;;;;;6.00;1.02;;;5.30;99.90;;;;;;5049568;28;20044;-73
2023/01/15 13:01:51;;;;;;;11.35;1.63;;;5.20;99.90;;;;;;5051199;28;20043;-74
2023/01/15 13:04:21;;;;;;;10.65;1.40;;;5.30;99.90;;;;;;5052028;28;20130;-75
2023/01/15 13:06:53;;;;;;;12.48;1.92;;;5.30;99.90;;;;;;5035588;28;20044;-76
2023/01/15 13:09:33;;;;;;;4.90;1.10;;;5.40;99.90;;;;;;5048293;28;20055;-74
2023/01/15 13:11:59;;;;;;;6.88;1.08;;;5.30;99.90;;;;;;5049483;28;20093;-74
2023/01/15 13:14:25;;;;;;;7.57;1.25;;;5.30;99.90;;;;;;5069069;28;20393;-75
2023/01/15 13:17:06;;;;;;;6.30;1.30;;;5.30;99.90;;;;;;5037016;28;20489;-75
2023/01/15 13:20:00;;;;;;;8.85;1.05;;;5.30;99.90;;;;;;5047914;28;20082;-75
2023/01/15 13:22:29;;;;;;;10.40;1.80;;;5.30;99.90;;;;;;5040418;28;20044;-75
2023/01/15 13:24:57;;;;;;;8.32;1.30;;;5.30;99.90;;;;;;5056511;28;20079;-75
2023/01/15 13:27:45;;;;;;;6.88;1.33;;;5.30;99.90;;;;;;5042926;28;20044;-75
2023/01/15 13:30:20;;;;;;;5.30;1.10;;;5.30;99.90;;;;;;5031208;28;20720;-75
2023/01/15 13:32:55;;;;;;;8.35;1.60;;;5.30;99.90;;;;;;5045325;28;20469;-76
2023/01/15 13:35:47;;;;;;;7.95;1.40;;;5.30;99.90;;;;;;5055794;28;20054;-76
2023/01/15 13:38:24;;;;;;;13.18;1.55;;;5.30;99.90;;;;;;5042212;28;20048;-76
2023/01/15 13:40:53;;;;;;;11.50;1.60;;;5.30;99.90;;;;;;5042117;28;20054;-75
2023/01/15 13:43:26;;;;;;;9.38;1.45;;;5.30;99.90;;;;;;5040836;28;20052;-75
2023/01/15 13:45:52;;;;;;;11.50;1.70;;;5.60;99.90;;;;;;5043098;28;20693;-76
2023/01/15 13:48:30;;;;;;;11.32;1.45;;;5.30;99.90;;;;;;5025083;28;20059;-76
2023/01/15 13:50:57;;;;;;;13.63;1.90;;;5.30;99.90;;;;;;5035510;28;20106;-77
2023/01/15 13:53:29;;;;;;;9.10;1.50;;;5.30;99.90;;;;;;5034717;28;20063;-76
2023/01/15 13:56:04;;;;;;;8.32;1.05;;;5.20;99.90;;;;;;5029046;28;20105;-75
2023/01/15 13:58:58;;;;;;;10.07;1.30;;;5.10;99.90;;;;;;5032291;28;20142;-76
2023/01/15 14:01:32;;;;;;;7.25;1.17;;;5.00;99.90;;;;;;5045070;28;21686;-75
2023/01/15 14:04:05;;;;;;;13.05;1.30;;;5.40;99.90;;;;;;5057859;28;20394;-76
2023/01/15 14:06:44;;;;;;;11.95;1.67;;;4.90;99.90;;;;;;5039096;28;20110;-74